createdAt,value
2022-12-18T00:02:14.291Z,42.25
2022-12-18T00:04:40.944Z,35.10
2022-12-18T00:07:07.549Z,33.30
2022-12-18T00:09:39.475Z,40.72
2022-12-18T00:14:45.245Z,39.33
2022-12-18T00:17:12.123Z,35.72
2022-12-18T00:19:38.629Z,34.08
2022-12-18T00:22:06.064Z,43.75
2022-12-18T00:24:32.795Z,38.05
2022-12-18T00:26:59.334Z,33.25
2022-12-18T00:29:25.860Z,36.35
2022-12-18T00:31:52.622Z,39.05
2022-12-18T00:34:19.178Z,38.85
2022-12-18T00:36:48.658Z,38.28
2022-12-18T00:39:15.352Z,39.30
2022-12-18T00:42:00.480Z,35.75
2022-12-18T00:44:27.183Z,37.95
2022-12-18T00:46:53.828Z,37.83
2022-12-18T00:49:20.836Z,42.25
2022-12-18T00:51:48.589Z,45.65
2022-12-18T00:54:15.821Z,39.90
2022-12-18T00:56:50.076Z,38.13
2022-12-18T00:59:19.694Z,33.85
2022-12-18T01:01:47.037Z,36.63
2022-12-18T01:04:14.265Z,37.28
2022-12-18T01:06:41.328Z,37.80
2022-12-18T01:09:07.818Z,40.83
2022-12-18T01:11:34.385Z,38.72
2022-12-18T01:14:01.172Z,40.85
2022-12-18T01:16:28.053Z,39.33
2022-12-18T01:18:55.872Z,39.20
2022-12-18T01:21:23.639Z,40.20
2022-12-18T01:23:54.929Z,40.17
2022-12-18T01:26:21.791Z,37.17
2022-12-18T01:28:48.871Z,36.63
2022-12-18T01:31:28.886Z,37.95
2022-12-18T01:33:56.248Z,43.53
2022-12-18T01:36:26.159Z,35.03
2022-12-18T01:38:53.303Z,40.00
2022-12-18T01:41:23.520Z,40.17
2022-12-18T01:43:58.779Z,39.17
2022-12-18T01:46:28.441Z,40.40
2022-12-18T01:48:58.654Z,40.13
2022-12-18T01:51:26.662Z,44.20
2022-12-18T01:53:53.397Z,45.75
2022-12-18T01:56:21.958Z,40.47
2022-12-18T01:58:57.352Z,40.80
2022-12-18T02:04:20.881Z,41.63
2022-12-18T02:06:51.880Z,41.35
2022-12-18T02:11:57.375Z,37.50
2022-12-18T02:14:42.732Z,40.42
2022-12-18T02:17:13.448Z,40.70
2022-12-18T02:19:58.769Z,37.55
2022-12-18T02:22:56.348Z,38.28
2022-12-18T02:25:41.344Z,35.33
2022-12-18T02:28:12.601Z,37.40
2022-12-18T02:30:40.889Z,31.90
2022-12-18T02:33:10.816Z,31.67
2022-12-18T02:35:37.909Z,32.88
2022-12-18T02:38:05.389Z,36.30
2022-12-18T02:40:32.898Z,34.92
2022-12-18T02:43:14.869Z,34.67
2022-12-18T02:45:50.726Z,33.45
2022-12-18T02:48:20.127Z,30.02
2022-12-18T02:50:55.661Z,35.00
2022-12-18T02:53:38.481Z,36.08
2022-12-18T02:56:21.146Z,35.15
2022-12-18T02:59:19.925Z,33.72
2022-12-18T03:02:17.061Z,36.28
2022-12-18T03:05:01.822Z,35.80
2022-12-18T03:07:46.543Z,37.10
2022-12-18T03:10:22.187Z,30.65
2022-12-18T03:13:01.836Z,33.53
2022-12-18T03:15:56.492Z,35.72
2022-12-18T03:18:28.299Z,36.13
2022-12-18T03:20:57.680Z,32.92
2022-12-18T03:23:29.275Z,31.38
2022-12-18T03:26:05.873Z,32.33
2022-12-18T03:28:38.309Z,37.17
2022-12-18T03:31:08.132Z,34.42
2022-12-18T03:33:47.425Z,32.45
2022-12-18T03:36:15.023Z,36.17
2022-12-18T03:38:41.727Z,34.13
2022-12-18T03:41:20.960Z,35.40
2022-12-18T03:43:58.239Z,36.58
2022-12-18T03:46:45.000Z,33.88
2022-12-18T03:49:18.062Z,35.83
2022-12-18T03:51:51.424Z,33.00
2022-12-18T03:54:19.047Z,34.67
2022-12-18T03:56:50.307Z,36.00
2022-12-18T03:59:18.338Z,33.63
2022-12-18T04:01:50.296Z,33.30
2022-12-18T04:04:18.797Z,36.67
2022-12-18T04:06:47.921Z,34.90
2022-12-18T04:09:15.112Z,35.97
2022-12-18T04:11:44.797Z,31.52
2022-12-18T04:14:17.601Z,34.60
2022-12-18T04:16:45.155Z,31.25
2022-12-18T04:19:11.658Z,36.60
2022-12-18T04:21:38.334Z,30.73
2022-12-18T04:24:04.995Z,34.50
2022-12-18T04:26:31.480Z,34.17
2022-12-18T04:28:58.083Z,36.30
2022-12-18T04:31:24.743Z,33.47
2022-12-18T04:33:51.294Z,35.50
2022-12-18T04:36:17.872Z,31.67
2022-12-18T04:38:44.652Z,30.30
2022-12-18T04:41:13.779Z,33.42
2022-12-18T04:43:40.736Z,34.90
2022-12-18T04:46:09.005Z,34.75
2022-12-18T04:48:38.016Z,32.10
2022-12-18T04:51:06.102Z,33.58
2022-12-18T04:53:32.842Z,36.75
2022-12-18T04:56:14.399Z,33.10
2022-12-18T04:58:42.470Z,33.53
2022-12-18T05:01:09.894Z,33.75
2022-12-18T05:03:38.311Z,36.40
2022-12-18T05:06:06.688Z,36.45
2022-12-18T05:08:34.045Z,33.53
2022-12-18T05:11:09.103Z,31.77
2022-12-18T05:13:36.827Z,33.20
2022-12-18T05:16:03.956Z,35.63
2022-12-18T05:18:32.034Z,34.17
2022-12-18T05:20:58.674Z,38.85
2022-12-18T05:23:25.842Z,35.33
2022-12-18T05:25:54.956Z,35.95
2022-12-18T05:28:22.920Z,32.50
2022-12-18T05:30:55.840Z,32.10
2022-12-18T05:33:24.082Z,35.03
2022-12-18T05:35:55.465Z,32.15
2022-12-18T05:38:23.557Z,34.70
2022-12-18T05:40:50.861Z,33.30
2022-12-18T05:43:21.330Z,34.03
2022-12-18T05:45:49.175Z,33.17
2022-12-18T05:48:16.257Z,33.95
2022-12-18T05:50:46.520Z,31.65
2022-12-18T05:53:14.863Z,31.92
2022-12-18T05:55:42.346Z,34.65
2022-12-18T05:58:10.173Z,34.58
2022-12-18T06:00:40.938Z,31.80
2022-12-18T06:03:09.006Z,32.65
2022-12-18T06:05:40.519Z,34.88
2022-12-18T06:10:35.704Z,33.08
2022-12-18T06:13:02.419Z,33.05
2022-12-18T06:15:29.100Z,31.30
2022-12-18T06:17:55.625Z,33.88
2022-12-18T06:20:22.979Z,31.27
2022-12-18T06:22:49.867Z,29.85
2022-12-18T06:25:16.536Z,31.42
2022-12-18T06:27:43.216Z,33.20
2022-12-18T06:30:11.119Z,32.75
2022-12-18T06:32:37.821Z,32.22
2022-12-18T06:35:04.960Z,31.45
2022-12-18T06:37:32.620Z,30.80
2022-12-18T06:39:59.249Z,32.47
2022-12-18T06:42:26.176Z,29.48
2022-12-18T06:44:53.012Z,33.72
2022-12-18T06:47:19.807Z,33.85
2022-12-18T06:49:46.456Z,34.30
2022-12-18T06:52:13.060Z,33.13
2022-12-18T06:54:39.543Z,33.20
2022-12-18T06:57:06.103Z,38.70
2022-12-18T06:59:32.759Z,35.20
2022-12-18T07:01:59.409Z,37.55
2022-12-18T07:04:32.878Z,37.67
2022-12-18T07:06:59.501Z,35.53
2022-12-18T07:09:26.504Z,35.92
2022-12-18T07:11:53.580Z,35.78
2022-12-18T07:14:20.340Z,34.13
2022-12-18T07:16:47.802Z,37.30
2022-12-18T07:19:14.461Z,35.30
2022-12-18T07:21:41.542Z,36.80
2022-12-18T07:24:08.399Z,35.72
2022-12-18T07:26:35.006Z,33.60
2022-12-18T07:29:01.624Z,38.03
2022-12-18T07:31:28.376Z,39.40
2022-12-18T07:33:55.566Z,36.70
2022-12-18T07:36:25.144Z,35.05
2022-12-18T07:38:53.437Z,36.85
2022-12-18T07:41:20.352Z,36.45
2022-12-18T07:43:47.544Z,40.08
2022-12-18T07:46:15.524Z,37.10
2022-12-18T07:48:49.931Z,34.53
2022-12-18T07:51:18.345Z,33.72
2022-12-18T07:53:45.406Z,39.40
2022-12-18T07:56:30.422Z,37.38
2022-12-18T07:58:58.104Z,40.60
2022-12-18T08:01:25.336Z,34.95
2022-12-18T08:03:52.434Z,39.42
2022-12-18T08:06:22.743Z,32.97
2022-12-18T08:08:52.354Z,35.67
2022-12-18T08:11:18.849Z,36.08
2022-12-18T08:13:46.468Z,39.17
2022-12-18T08:16:13.094Z,38.03
2022-12-18T08:18:39.633Z,34.08
2022-12-18T08:21:10.999Z,37.75
2022-12-18T08:23:42.278Z,38.70
2022-12-18T08:26:10.865Z,35.22
2022-12-18T08:28:37.464Z,34.55
2022-12-18T08:31:04.967Z,36.40
2022-12-18T08:33:31.813Z,37.47
2022-12-18T08:35:59.496Z,40.72
2022-12-18T08:38:26.096Z,40.42
2022-12-18T08:41:06.503Z,38.50
2022-12-18T08:43:51.971Z,38.80
2022-12-18T08:46:23.411Z,40.35
2022-12-18T08:51:18.440Z,38.80
2022-12-18T08:53:46.067Z,41.05
2022-12-18T08:56:13.536Z,40.65
2022-12-18T08:58:40.448Z,38.63
2022-12-18T09:01:10.253Z,43.38
2022-12-18T09:03:37.623Z,42.35
2022-12-18T09:06:04.547Z,40.88
2022-12-18T09:08:31.139Z,43.38
2022-12-18T09:10:57.776Z,41.22
2022-12-18T09:13:25.083Z,45.60
2022-12-18T09:15:54.095Z,46.47
2022-12-18T09:18:22.206Z,41.33
2022-12-18T09:20:48.949Z,44.58
2022-12-18T09:23:15.864Z,41.95
2022-12-18T09:25:42.559Z,39.88
2022-12-18T09:28:17.193Z,42.00
2022-12-18T09:30:46.936Z,39.10
2022-12-18T09:33:14.687Z,39.72
2022-12-18T09:35:42.885Z,38.72
2022-12-18T09:38:13.636Z,41.80
2022-12-18T09:40:46.162Z,44.92
2022-12-18T09:43:43.276Z,41.45
2022-12-18T09:46:17.160Z,40.55
2022-12-18T09:48:47.412Z,43.92
2022-12-18T09:51:20.772Z,45.78
2022-12-18T09:54:17.572Z,42.45
2022-12-18T09:56:44.931Z,39.65
2022-12-18T09:59:22.338Z,39.38
2022-12-18T10:01:49.061Z,44.47
2022-12-18T10:04:16.042Z,36.13
2022-12-18T10:07:09.448Z,36.08
2022-12-18T10:10:04.069Z,37.75
2022-12-18T10:12:45.841Z,35.38
2022-12-18T10:15:44.559Z,38.03
2022-12-18T10:18:42.513Z,36.95
2022-12-18T10:21:18.823Z,33.55
2022-12-18T10:24:14.924Z,36.38
2022-12-18T10:26:42.854Z,39.30
2022-12-18T10:29:15.477Z,38.72
2022-12-18T10:31:42.223Z,36.67
2022-12-18T10:34:16.085Z,36.58
2022-12-18T10:36:43.482Z,41.10
2022-12-18T10:39:24.661Z,38.88
2022-12-18T10:41:51.362Z,42.03
2022-12-18T10:44:27.465Z,40.58
2022-12-18T10:47:10.190Z,38.33
2022-12-18T10:49:43.365Z,40.30
2022-12-18T10:52:18.996Z,39.28
2022-12-18T10:54:59.360Z,42.53
2022-12-18T10:57:33.600Z,42.85
2022-12-18T11:00:02.479Z,44.22
2022-12-18T11:02:38.936Z,42.47
2022-12-18T11:05:26.419Z,42.38
2022-12-18T11:07:55.077Z,43.88
2022-12-18T11:10:26.267Z,45.35
2022-12-18T11:12:53.235Z,44.15
2022-12-18T11:15:30.837Z,41.60
2022-12-18T11:17:57.637Z,43.33
2022-12-18T11:20:28.259Z,41.28
2022-12-18T11:23:00.854Z,42.15
2022-12-18T11:25:33.274Z,42.15
2022-12-18T11:28:03.797Z,40.70
2022-12-18T11:30:31.465Z,41.40
2022-12-18T11:33:07.485Z,44.47
2022-12-18T11:35:46.587Z,40.75
2022-12-18T11:38:13.216Z,41.13
2022-12-18T11:40:44.897Z,40.47
2022-12-18T11:43:19.999Z,42.08
2022-12-18T11:45:54.129Z,44.83
2022-12-18T11:48:28.690Z,41.47
2022-12-18T11:50:57.821Z,42.70
2022-12-18T11:53:26.583Z,43.78
2022-12-18T11:56:18.560Z,40.67
2022-12-18T11:59:34.024Z,45.13
2022-12-18T12:02:13.090Z,40.20
2022-12-18T12:04:49.086Z,36.20
2022-12-18T12:07:39.906Z,39.90
2022-12-18T12:10:46.652Z,37.90
2022-12-18T12:13:54.716Z,41.85
2022-12-18T12:17:07.351Z,37.42
2022-12-18T12:19:38.486Z,35.92
2022-12-18T12:22:16.821Z,37.80
2022-12-18T12:24:52.866Z,35.63
2022-12-18T12:27:24.253Z,36.15
2022-12-18T12:32:36.313Z,33.65
2022-12-18T12:35:21.199Z,41.53
2022-12-18T12:38:00.997Z,40.20
2022-12-18T12:43:22.761Z,40.42
2022-12-18T12:46:09.966Z,39.08
2022-12-18T12:48:43.609Z,37.75
2022-12-18T12:51:35.685Z,42.45
2022-12-18T12:54:05.448Z,36.17
2022-12-18T12:56:51.971Z,36.17
2022-12-18T12:59:30.457Z,36.50
2022-12-18T13:02:06.132Z,34.25
2022-12-18T13:04:42.167Z,35.50
2022-12-18T13:07:18.954Z,40.25
2022-12-18T13:10:25.702Z,38.10
2022-12-18T13:16:09.157Z,35.17
2022-12-18T13:18:36.311Z,35.65
2022-12-18T13:21:42.568Z,35.33
2022-12-18T13:24:36.735Z,37.80
2022-12-18T13:27:41.561Z,32.75
2022-12-18T13:30:33.906Z,35.95
2022-12-18T13:33:16.260Z,33.33
2022-12-18T13:35:48.688Z,34.45
2022-12-18T13:38:37.044Z,32.92
2022-12-18T13:41:16.212Z,32.63
2022-12-18T13:43:46.996Z,33.67
2022-12-18T13:46:21.132Z,36.00
2022-12-18T13:48:54.895Z,33.45
2022-12-18T13:51:22.490Z,34.00
2022-12-18T13:54:06.574Z,32.83
2022-12-18T13:56:35.319Z,32.67
2022-12-18T13:59:14.465Z,35.08
2022-12-18T14:01:46.568Z,33.47
2022-12-18T14:04:20.969Z,33.63
2022-12-18T14:06:48.696Z,33.58
2022-12-18T14:09:25.301Z,39.67
2022-12-18T14:11:53.258Z,32.50
2022-12-18T14:14:20.528Z,34.30
2022-12-18T14:16:48.460Z,34.13
2022-12-18T14:19:19.295Z,34.80
2022-12-18T14:21:50.798Z,31.98
2022-12-18T14:24:22.496Z,31.27
2022-12-18T14:26:51.174Z,30.85
2022-12-18T14:29:29.784Z,31.67
2022-12-18T14:32:19.290Z,28.73
2022-12-18T14:34:52.647Z,32.20
2022-12-18T14:37:24.050Z,33.45
2022-12-18T14:40:08.654Z,34.70
2022-12-18T14:42:35.470Z,33.10
2022-12-18T14:45:40.978Z,35.33
2022-12-18T14:48:23.028Z,35.00
2022-12-18T14:51:01.852Z,33.17
2022-12-18T14:53:33.403Z,35.78
2022-12-18T14:56:00.053Z,33.65
2022-12-18T14:58:26.932Z,34.08
2022-12-18T15:00:54.559Z,33.47
2022-12-18T15:03:22.793Z,35.63
2022-12-18T15:05:49.799Z,36.22
2022-12-18T15:08:39.715Z,32.72
2022-12-18T15:13:52.869Z,27.80
2022-12-18T15:16:19.605Z,31.15
2022-12-18T15:18:49.061Z,35.47
2022-12-18T15:21:19.611Z,34.55
2022-12-18T15:23:47.774Z,33.97
2022-12-18T15:26:16.768Z,35.78
2022-12-18T15:28:51.041Z,36.20
2022-12-18T15:31:18.037Z,35.03
2022-12-18T15:33:53.988Z,34.47
2022-12-18T15:36:26.571Z,33.55
2022-12-18T15:38:58.916Z,34.85
2022-12-18T15:41:35.851Z,32.50
2022-12-18T15:44:03.888Z,34.35
2022-12-18T15:46:31.932Z,33.45
2022-12-18T15:49:02.120Z,35.47
2022-12-18T15:51:34.338Z,31.67
2022-12-18T15:54:04.861Z,27.50
2022-12-18T15:56:50.594Z,23.90
2022-12-18T15:59:20.063Z,22.13
2022-12-18T16:01:49.113Z,15.32
2022-12-18T16:04:17.773Z,16.40
2022-12-18T16:07:13.456Z,8.95
2022-12-18T16:09:31.193Z,6.45
2022-12-18T16:12:01.079Z,5.75
2022-12-18T16:14:29.779Z,5.15
2022-12-18T16:16:58.715Z,6.32
2022-12-18T16:19:26.028Z,4.72
2022-12-18T16:21:55.810Z,4.22
2022-12-18T16:24:25.339Z,4.10
2022-12-18T16:26:53.180Z,7.95
2022-12-18T16:29:27.907Z,4.28
2022-12-18T16:31:58.048Z,7.93
2022-12-18T16:34:29.789Z,5.50
2022-12-18T16:37:01.677Z,4.57
2022-12-18T16:39:31.914Z,5.88
2022-12-18T16:41:58.514Z,4.82
2022-12-18T16:44:26.033Z,3.78
2022-12-18T16:46:52.749Z,5.10
2022-12-18T16:49:20.411Z,3.78
2022-12-18T16:51:47.499Z,6.53
2022-12-18T16:54:18.892Z,4.50
2022-12-18T16:56:49.770Z,5.32
2022-12-18T16:59:16.716Z,5.57
2022-12-18T17:01:44.490Z,5.30
2022-12-18T17:04:11.554Z,4.82
2022-12-18T17:06:44.443Z,3.80
2022-12-18T17:09:14.539Z,5.72
2022-12-18T17:11:41.132Z,6.97
2022-12-18T17:14:14.462Z,3.83
2022-12-18T17:16:41.348Z,3.42
2022-12-18T17:19:10.961Z,5.38
2022-12-18T17:21:42.042Z,4.65
2022-12-18T17:24:09.230Z,4.25
2022-12-18T17:26:35.758Z,3.75
2022-12-18T17:29:02.676Z,5.90
2022-12-18T17:31:30.635Z,5.80
2022-12-18T17:33:58.083Z,4.95
2022-12-18T17:36:28.617Z,4.05
2022-12-18T17:39:00.242Z,4.88
2022-12-18T17:41:28.879Z,3.58
2022-12-18T17:43:57.702Z,5.07
2022-12-18T17:46:25.896Z,4.05
2022-12-18T17:48:54.958Z,4.78
2022-12-18T17:51:21.637Z,4.72
2022-12-18T17:53:48.596Z,4.03
2022-12-18T17:56:17.515Z,5.10
2022-12-18T17:58:44.693Z,3.63
2022-12-18T18:01:17.545Z,5.10
2022-12-18T18:03:46.016Z,3.92
2022-12-18T18:06:15.523Z,5.40
2022-12-18T18:08:42.394Z,5.22
2022-12-18T18:11:31.767Z,4.05
2022-12-18T18:14:02.091Z,5.10
2022-12-18T18:16:29.941Z,5.10
2022-12-18T18:19:05.665Z,5.28
2022-12-18T18:21:32.981Z,5.93
2022-12-18T18:24:02.162Z,4.32
2022-12-18T18:26:31.513Z,5.40
2022-12-18T18:28:59.661Z,5.90
2022-12-18T18:31:30.045Z,7.90
2022-12-18T18:33:57.467Z,7.38
2022-12-18T18:36:24.736Z,4.88
2022-12-18T18:38:52.049Z,6.70
2022-12-18T18:41:19.259Z,5.40
2022-12-18T18:43:46.336Z,5.85
2022-12-18T18:46:15.100Z,4.13
2022-12-18T18:48:42.495Z,5.10
2022-12-18T18:51:20.325Z,4.03
2022-12-18T18:53:50.098Z,6.18
2022-12-18T18:59:05.236Z,6.30
2022-12-18T19:01:32.417Z,5.07
2022-12-18T19:03:59.104Z,5.82
2022-12-18T19:06:28.002Z,5.20
2022-12-18T19:08:55.956Z,5.55
2022-12-18T19:11:42.544Z,5.75
2022-12-18T19:14:11.747Z,8.38
2022-12-18T19:16:39.057Z,3.92
2022-12-18T19:19:06.591Z,4.53
2022-12-18T19:21:34.792Z,4.07
2022-12-18T19:24:02.766Z,6.47
2022-12-18T19:26:30.311Z,5.55
2022-12-18T19:29:05.790Z,4.45
2022-12-18T19:31:36.152Z,5.65
2022-12-18T19:36:32.888Z,4.47
2022-12-18T19:39:01.753Z,5.65
2022-12-18T19:41:31.341Z,3.88
2022-12-18T19:44:00.120Z,5.65
2022-12-18T19:46:28.873Z,4.15
2022-12-18T19:48:55.367Z,4.22
2022-12-18T19:51:27.633Z,3.38
2022-12-18T19:53:58.756Z,5.47
2022-12-18T19:56:27.751Z,4.15
2022-12-18T19:58:54.940Z,5.38
2022-12-18T20:01:24.121Z,4.90
2022-12-18T20:03:52.735Z,5.95
2022-12-18T20:06:25.742Z,5.22
2022-12-18T20:08:53.979Z,5.25
2022-12-18T20:11:24.473Z,3.22
2022-12-18T20:13:51.042Z,6.03
2022-12-18T20:16:17.750Z,4.95
2022-12-18T20:18:44.289Z,6.50
2022-12-18T20:21:13.870Z,3.20
2022-12-18T20:23:41.575Z,3.70
2022-12-18T20:26:08.616Z,6.60
2022-12-18T20:28:35.617Z,5.30
2022-12-18T20:31:04.691Z,5.07
2022-12-18T20:33:31.561Z,5.32
2022-12-18T20:36:06.873Z,5.55
2022-12-18T20:38:35.271Z,4.15
2022-12-18T20:41:06.520Z,5.00
2022-12-18T20:43:33.194Z,3.10
2022-12-18T20:46:05.495Z,3.50
2022-12-18T20:48:32.726Z,5.28
2022-12-18T20:51:05.834Z,5.35
2022-12-18T20:53:35.664Z,4.13
2022-12-18T20:56:09.861Z,5.15
2022-12-18T20:58:36.705Z,4.55
2022-12-18T21:01:11.980Z,4.60
2022-12-18T21:03:43.658Z,6.32
2022-12-18T21:06:10.756Z,4.78
2022-12-18T21:08:38.159Z,4.70
2022-12-18T21:11:55.492Z,4.30
2022-12-18T21:14:25.676Z,4.45
2022-12-18T21:16:55.396Z,6.50
2022-12-18T21:19:25.468Z,4.15
2022-12-18T21:21:53.777Z,4.43
2022-12-18T21:24:20.358Z,4.28
2022-12-18T21:26:48.398Z,4.40
2022-12-18T21:29:17.845Z,3.20
2022-12-18T21:31:45.476Z,3.40
2022-12-18T21:34:21.373Z,5.22
2022-12-18T21:36:48.479Z,4.07
2022-12-18T21:39:16.661Z,4.60
2022-12-18T21:42:02.310Z,3.30
2022-12-18T21:44:29.584Z,6.20
2022-12-18T21:47:02.441Z,4.43
2022-12-18T21:49:36.141Z,4.57
2022-12-18T21:52:02.723Z,3.25
2022-12-18T21:54:30.001Z,3.80
2022-12-18T21:56:59.360Z,3.65
2022-12-18T21:59:33.391Z,3.85
2022-12-18T22:02:03.056Z,5.95
2022-12-18T22:04:29.884Z,4.05
2022-12-18T22:06:56.476Z,4.13
2022-12-18T22:09:24.781Z,3.97
2022-12-18T22:11:52.124Z,3.35
2022-12-18T22:14:18.837Z,4.10
2022-12-18T22:16:45.661Z,4.97
2022-12-18T22:19:14.815Z,3.10
2022-12-18T22:21:45.855Z,4.57
2022-12-18T22:24:14.899Z,4.75
2022-12-18T22:26:41.816Z,3.28
2022-12-18T22:29:35.896Z,6.43
2022-12-18T22:32:03.429Z,6.68
2022-12-18T22:34:34.213Z,5.97
2022-12-18T22:37:03.102Z,6.15
2022-12-18T22:39:30.258Z,5.82
2022-12-18T22:41:57.831Z,5.68
2022-12-18T22:44:26.021Z,5.88
2022-12-18T22:47:03.534Z,6.60
2022-12-18T22:49:32.650Z,5.00
2022-12-18T22:52:01.360Z,6.40
2022-12-18T22:54:27.871Z,5.35
2022-12-18T22:56:54.425Z,3.58
2022-12-18T22:59:22.947Z,4.25
2022-12-18T23:01:52.925Z,4.43
2022-12-18T23:04:31.990Z,3.70
2022-12-18T23:07:03.338Z,3.83
2022-12-18T23:09:29.992Z,5.60
2022-12-18T23:11:56.513Z,2.67
2022-12-18T23:14:23.034Z,3.63
2022-12-18T23:16:49.693Z,5.18
2022-12-18T23:19:18.841Z,3.97
2022-12-18T23:21:45.351Z,3.22
2022-12-18T23:24:12.222Z,4.07
2022-12-18T23:26:38.966Z,2.67
2022-12-18T23:29:06.000Z,2.90
2022-12-18T23:31:35.136Z,3.70
2022-12-18T23:34:03.363Z,6.03
2022-12-18T23:36:31.120Z,4.13
2022-12-18T23:39:11.881Z,4.32
2022-12-18T23:41:41.924Z,3.05
2022-12-18T23:44:10.076Z,4.88
2022-12-18T23:46:37.712Z,5.95
2022-12-18T23:49:05.861Z,4.65
2022-12-18T23:51:33.391Z,7.38
2022-12-18T23:54:02.367Z,3.58
2022-12-18T23:56:30.387Z,3.63
2022-12-18T23:58:57.391Z,4.53
